Paw Paw, Illinois
Current Conditions -  °F | °C
As of 11:15 AM on Friday 24 Oct 2014 (Local Time) from KRPJ Reporting Station
Overcast Overcast  
Wind Chill: 52°   Ceiling: 600
Heat Index: 52°   Visibility: 7mi
Dew Point: 49°   Wind: 3mph
Humidity: 90%   Direction: 170°S
Pressure: 30.07"   Gusts: NA
Location:  41.69°N, 88.98°W
Report Text: KRPJ 241615Z AUTO 17003KT 7SM OVC006 11/10 A3007 RMK AO2 T01110095
Loading
Personal Weather Stations






























Interactive Weather Map
Tropical Storm Tracking
New forecast layout! Learn more

10-Day Weather Forecast

Advertisements
Track Severe Weather on mobile